Terminal Aerodrome Forecast
Issued by NWS

Current Version | Previous Version | Text Only | Print | Product List | Glossary On
Versions: 1 2 3 4 5 6 7 8 9 10 11 12 13 14 15 16 17 18 19 20 21 22 23 24 25 26 27 28 29
000 FTUS41 KBOX 291728 TAFBED TAF KBED 291728Z 2918/3018 VRB03KT P6SM BKN250 FM300200 VRB03KT P6SM BKN110 FM300600 16004KT P6SM -SN OVC010 FM300800 15005KT 2SM -SN OVC010 FM301500 18004KT 1SM -SN OVC003 FM301700 28005KT 1SM -SN OVC003=

USA.gov is the U.S. government's official web portal to all federal, state and local government web resources and services.